Time;durP1;ratioP1;P1;durP2;ratioP2;P2;SDS_P1;SDS_P2;PMS_P1;PMS_P2;Temp;Humidity;BMP_temperature;BMP_pressure;BME280_temperature;BME280_humidity;BME280_pressure;Samples;Min_cycle;Max_cycle;Signal;HPM_P1;HPM_P2
2024/01/06 00:01:16;;;;;;;508.98;243.32;;;;;;;4.46;100.00;96737.03;4986177;28;20493;-61
2024/01/06 00:03:42;;;;;;;417.52;237.50;;;;;;;4.34;100.00;96733.56;4987795;28;20517;-60
2024/01/06 00:06:07;;;;;;;506.48;235.52;;;;;;;4.48;100.00;96738.75;4987303;28;20049;-58
2024/01/06 00:08:32;;;;;;;465.45;235.68;;;;;;;4.52;100.00;96740.47;4988659;28;20029;-56
2024/01/06 00:10:58;;;;;;;431.88;237.50;;;;;;;4.53;100.00;96738.75;4985484;28;20683;-61
2024/01/06 00:13:23;;;;;;;606.42;250.20;;;;;;;4.59;100.00;96740.47;4986921;28;20030;-60
2024/01/06 00:15:48;;;;;;;447.30;244.05;;;;;;;4.47;100.00;96744.75;4986946;28;20069;-58
2024/01/06 00:18:14;;;;;;;538.50;236.30;;;;;;;4.56;100.00;96746.47;4990528;28;20113;-57
2024/01/06 00:20:39;;;;;;;447.65;231.45;;;;;;;4.60;100.00;96747.34;4988681;28;20116;-59
2024/01/06 00:23:04;;;;;;;444.25;232.82;;;;;;;4.65;100.00;96749.06;4987635;28;20540;-59
2024/01/06 00:25:30;;;;;;;463.83;237.77;;;;;;;4.52;100.00;96755.91;4984395;28;20117;-58
2024/01/06 00:27:55;;;;;;;496.52;244.65;;;;;;;4.54;100.00;96754.19;4987069;28;20474;-60
2024/01/06 00:30:20;;;;;;;505.17;234.82;;;;;;;4.25;100.00;96742.16;4987396;28;20305;-59
2024/01/06 00:32:46;;;;;;;421.00;226.93;;;;;;;4.31;100.00;96751.63;4990396;28;20033;-60
2024/01/06 00:35:11;;;;;;;635.10;240.73;;;;;;;4.21;100.00;96753.31;4986977;28;20026;-59
2024/01/06 00:37:36;;;;;;;407.83;225.02;;;;;;;4.22;100.00;96757.59;4989875;28;20025;-60
2024/01/06 00:40:02;;;;;;;435.83;215.82;;;;;;;4.32;100.00;96758.47;4987800;28;20041;-58
2024/01/06 00:42:27;;;;;;;484.23;213.75;;;;;;;4.28;100.00;96756.75;4986913;28;20037;-58
2024/01/06 00:44:53;;;;;;;410.15;205.52;;;;;;;4.12;100.00;96754.13;4988052;28;20026;-59
2024/01/06 00:47:18;;;;;;;520.25;211.50;;;;;;;4.14;100.00;96760.16;4984305;28;20046;-59
2024/01/06 00:49:43;;;;;;;439.85;206.35;;;;;;;3.95;100.00;96764.38;4986255;28;20029;-59
2024/01/06 00:52:09;;;;;;;393.63;202.68;;;;;;;4.05;100.00;96760.13;4986312;28;20187;-60
2024/01/06 00:54:34;;;;;;;427.38;210.15;;;;;;;4.02;100.00;96760.13;4988077;28;20807;-57
2024/01/06 00:56:59;;;;;;;462.02;216.05;;;;;;;3.82;100.00;96767.78;4987284;28;20038;-59
2024/01/06 00:59:25;;;;;;;641.42;230.18;;;;;;;3.58;100.00;96759.09;4986699;28;20432;-57
2024/01/06 01:01:50;;;;;;;471.92;215.57;;;;;;;3.60;100.00;96765.94;4986637;28;20046;-59
2024/01/06 01:04:16;;;;;;;563.28;224.02;;;;;;;3.58;100.00;96764.22;4984442;28;20033;-58
2024/01/06 01:06:41;;;;;;;460.65;228.60;;;;;;;3.84;100.00;96766.06;4984403;28;20092;-59
2024/01/06 01:09:06;;;;;;;500.52;232.50;;;;;;;3.92;100.00;96772.09;4984426;28;20032;-57
2024/01/06 01:11:32;;;;;;;558.67;237.13;;;;;;;4.04;100.00;96769.56;4981587;28;20042;-60
2024/01/06 01:13:57;;;;;;;506.90;235.05;;;;;;;3.95;100.00;96773.81;4983154;28;20121;-58
2024/01/06 01:16:22;;;;;;;586.22;240.77;;;;;;;4.12;100.00;96777.28;4980166;28;20052;-57
2024/01/06 01:18:48;;;;;;;543.88;238.90;;;;;;;4.14;100.00;96779.88;4982854;28;20021;-59
2024/01/06 01:21:14;;;;;;;544.80;231.38;;;;;;;3.99;100.00;96780.69;4981835;28;20042;-59
2024/01/06 01:23:40;;;;;;;463.52;221.70;;;;;;;3.96;100.00;96789.25;4984933;28;20022;-59
2024/01/06 01:26:05;;;;;;;498.02;220.30;;;;;;;4.02;100.00;96791.00;4983039;28;20039;-58
2024/01/06 01:28:30;;;;;;;492.25;231.27;;;;;;;3.89;100.00;96783.22;4981532;28;20034;-60
2024/01/06 01:30:56;;;;;;;469.55;231.73;;;;;;;4.03;100.00;96787.56;4982801;28;20229;-58
2024/01/06 01:33:21;;;;;;;621.88;242.68;;;;;;;3.96;100.00;96789.25;4982232;28;20585;-56
2024/01/06 01:35:46;;;;;;;495.92;236.98;;;;;;;4.06;100.00;96790.16;4982055;28;20347;-56
2024/01/06 01:38:12;;;;;;;492.92;237.20;;;;;;;3.93;100.00;96785.81;4982362;28;20030;-58
2024/01/06 01:40:37;;;;;;;518.30;225.70;;;;;;;3.87;100.00;96790.06;4982408;28;20034;-59
2024/01/06 01:43:02;;;;;;;458.67;221.07;;;;;;;4.04;100.00;96792.72;4983375;28;20581;-58
2024/01/06 01:45:28;;;;;;;550.28;228.93;;;;;;;3.84;100.00;96795.22;4982347;28;20037;-58
2024/01/06 01:47:53;;;;;;;528.65;234.30;;;;;;;3.79;100.00;96794.34;4984140;28;20211;-57
2024/01/06 01:50:20;;;;;;;571.80;241.32;;;;;;;3.80;100.00;96790.03;4981172;28;20030;-56
2024/01/06 01:52:46;;;;;;;451.40;227.05;;;;;;;3.81;100.00;96792.63;4983993;28;20113;-58
2024/01/06 01:55:11;;;;;;;493.42;230.27;;;;;;;3.53;100.00;96791.63;4980573;28;20041;-57
2024/01/06 01:57:37;;;;;;;488.27;231.80;;;;;;;3.28;100.00;96799.19;4982538;28;20033;-58
2024/01/06 02:00:03;;;;;;;440.27;223.55;;;;;;;3.13;100.00;96796.53;4980159;28;20034;-57
2024/01/06 02:02:28;;;;;;;563.00;236.45;;;;;;;3.04;100.00;96795.63;4981030;28;20127;-56
2024/01/06 02:04:55;;;;;;;485.70;233.85;;;;;;;3.07;100.00;96793.94;4982714;28;20045;-58
2024/01/06 02:07:21;;;;;;;564.10;236.00;;;;;;;3.16;100.00;96790.56;4980594;28;20336;-58
2024/01/06 02:09:46;;;;;;;488.38;231.93;;;;;;;3.28;100.00;96791.50;4981581;28;20113;-58
2024/01/06 02:12:12;;;;;;;448.08;237.50;;;;;;;3.29;100.00;96788.94;4980986;28;20045;-56
2024/01/06 02:14:37;;;;;;;485.27;215.70;;;;;;;3.45;100.00;96789.03;4980511;28;20666;-56
2024/01/06 02:17:02;;;;;;;539.72;227.60;;;;;;;3.20;100.00;96794.03;4980121;28;20456;-57
2024/01/06 02:19:28;;;;;;;685.20;239.82;;;;;;;3.49;100.00;96791.63;4978169;28;20153;-56
2024/01/06 02:21:53;;;;;;;536.47;232.60;;;;;;;3.58;100.00;96792.50;4981001;28;20340;-57
2024/01/06 02:24:19;;;;;;;638.75;235.52;;;;;;;3.49;100.00;96790.78;4980271;28;20113;-58
2024/01/06 02:26:45;;;;;;;451.88;220.88;;;;;;;3.39;100.00;96785.56;4980669;28;20655;-57
2024/01/06 02:29:10;;;;;;;534.47;232.68;;;;;;;3.47;100.00;96789.88;4981910;28;20045;-58
2024/01/06 02:31:36;;;;;;;520.65;235.02;;;;;;;3.69;100.00;96787.41;4978778;28;20045;-56
2024/01/06 02:34:01;;;;;;;524.22;233.63;;;;;;;3.62;100.00;96792.56;4981184;28;20101;-58
2024/01/06 02:36:26;;;;;;;552.80;237.93;;;;;;;3.71;100.00;96786.56;4980059;28;20045;-58
2024/01/06 02:38:52;;;;;;;489.35;235.85;;;;;;;3.60;100.00;96791.66;4981796;28;20129;-58
2024/01/06 02:41:17;;;;;;;542.13;239.68;;;;;;;3.63;100.00;96789.13;4979464;28;20584;-58
2024/01/06 02:43:42;;;;;;;491.17;232.45;;;;;;;3.74;100.00;96791.75;4981082;28;20040;-58
2024/01/06 02:46:08;;;;;;;512.03;236.07;;;;;;;3.69;100.00;96784.84;4978359;28;20398;-58
2024/01/06 02:48:34;;;;;;;500.77;238.32;;;;;;;3.68;100.00;96791.72;4982476;28;20293;-56
2024/01/06 02:50:59;;;;;;;539.88;241.82;;;;;;;3.62;100.00;96792.56;4983444;28;20064;-57
2024/01/06 02:53:24;;;;;;;514.95;237.68;;;;;;;3.75;100.00;96792.63;4984412;28;20125;-57
2024/01/06 02:55:49;;;;;;;469.15;236.02;;;;;;;3.64;100.00;96795.97;4983172;28;20056;-56
2024/01/06 02:58:15;;;;;;;477.08;231.82;;;;;;;3.57;100.00;96799.38;4983781;28;20571;-55
2024/01/06 03:00:40;;;;;;;434.35;227.85;;;;;;;3.54;100.00;96798.50;4983161;28;20045;-57
2024/01/06 03:03:05;;;;;;;462.58;234.82;;;;;;;3.51;100.00;96805.34;4986482;28;20431;-57
2024/01/06 03:05:31;;;;;;;617.83;240.52;;;;;;;3.46;100.00;96811.31;4983011;28;20085;-56
2024/01/06 03:07:56;;;;;;;519.97;238.90;;;;;;;3.63;100.00;96807.13;4984352;28;20038;-58
2024/01/06 03:10:22;;;;;;;559.30;239.93;;;;;;;3.55;100.00;96805.34;4983133;28;20340;-56
2024/01/06 03:12:47;;;;;;;530.58;241.05;;;;;;;3.74;100.00;96808.88;4984699;28;20022;-58
2024/01/06 03:15:13;;;;;;;580.13;246.80;;;;;;;3.61;100.00;96803.66;4982543;28;20089;-56
2024/01/06 03:17:38;;;;;;;548.58;244.25;;;;;;;3.50;100.00;96811.31;4984826;28;20045;-56
2024/01/06 03:20:04;;;;;;;562.75;242.95;;;;;;;3.39;100.00;96808.69;4982574;28;20058;-56
2024/01/06 03:22:29;;;;;;;552.85;243.15;;;;;;;3.29;100.00;96809.50;4983020;28;20353;-56
2024/01/06 03:24:55;;;;;;;474.30;238.00;;;;;;;3.52;100.00;96803.63;4984376;28;20058;-56
2024/01/06 03:27:20;;;;;;;642.72;243.13;;;;;;;3.24;100.00;96809.44;4981443;28;20488;-55
2024/01/06 03:29:46;;;;;;;456.00;227.73;;;;;;;3.31;100.00;96807.81;4983635;28;20084;-57
2024/01/06 03:32:12;;;;;;;487.63;231.75;;;;;;;3.70;100.00;96809.72;4983841;28;20329;-56
2024/01/06 03:34:37;;;;;;;541.08;233.07;;;;;;;3.65;100.00;96807.13;4982853;28;20148;-55
2024/01/06 03:37:02;;;;;;;506.20;232.98;;;;;;;3.73;100.00;96812.31;4983996;28;20070;-58
2024/01/06 03:39:28;;;;;;;643.97;246.00;;;;;;;3.60;100.00;96808.81;4983328;28;20235;-58
2024/01/06 03:41:53;;;;;;;554.08;246.85;;;;;;;3.64;100.00;96820.84;4985012;28;20510;-57
2024/01/06 03:44:19;;;;;;;495.33;249.25;;;;;;;3.64;100.00;96828.56;4983206;28;20065;-55
2024/01/06 03:46:44;;;;;;;494.45;248.85;;;;;;;3.44;100.00;96820.72;4984176;28;20054;-57
2024/01/06 03:49:09;;;;;;;529.50;252.07;;;;;;;3.48;100.00;96819.88;4985641;28;20409;-55
2024/01/06 03:51:35;;;;;;;617.65;257.20;;;;;;;3.39;100.00;96823.25;4980232;28;20038;-58
2024/01/06 03:54:00;;;;;;;497.15;248.50;;;;;;;3.68;100.00;96820.00;4983521;28;20105;-56
2024/01/06 03:56:25;;;;;;;650.25;258.15;;;;;;;3.77;100.00;96826.91;4982204;28;20486;-57
2024/01/06 03:58:51;;;;;;;484.73;257.42;;;;;;;3.69;100.00;96829.44;4986223;28;20383;-56
2024/01/06 04:01:16;;;;;;;481.20;254.75;;;;;;;3.43;100.00;96830.16;4983988;28;20053;-57
2024/01/06 04:03:41;;;;;;;535.92;256.05;;;;;;;3.35;100.00;96826.66;4983591;28;20035;-57
2024/01/06 04:06:07;;;;;;;476.88;254.00;;;;;;;3.53;100.00;96831.06;4984506;28;20111;-57
2024/01/06 04:08:32;;;;;;;616.78;267.75;;;;;;;3.74;100.00;96832.03;4984197;28;20126;-57
2024/01/06 04:10:57;;;;;;;540.72;261.42;;;;;;;3.64;100.00;96836.28;4983543;28;20038;-57
2024/01/06 04:13:24;;;;;;;505.27;251.63;;;;;;;3.51;100.00;96841.34;4983891;28;20373;-58
2024/01/06 04:15:50;;;;;;;489.48;253.60;;;;;;;3.47;100.00;96847.31;4968384;28;20157;-57
2024/01/06 04:18:16;;;;;;;474.27;246.15;;;;;;;3.59;100.00;96843.06;4985454;28;20022;-56
2024/01/06 04:20:41;;;;;;;483.05;253.82;;;;;;;3.65;100.00;96850.84;4983016;28;20072;-56
2024/01/06 04:23:06;;;;;;;484.30;246.63;;;;;;;3.81;100.00;96846.63;4985471;28;20022;-57
2024/01/06 04:25:31;;;;;;;638.72;260.88;;;;;;;3.66;100.00;96852.56;4996014;28;20138;-55
2024/01/06 04:27:57;;;;;;;478.58;250.00;;;;;;;3.39;100.00;96849.81;4984094;28;20029;-56
2024/01/06 04:30:22;;;;;;;562.78;250.00;;;;;;;3.51;100.00;96855.91;4982195;28;20042;-58
2024/01/06 04:32:48;;;;;;;528.55;251.95;;;;;;;3.72;100.00;96850.03;4982798;28;20029;-56
2024/01/06 04:35:14;;;;;;;554.95;255.65;;;;;;;3.50;100.00;96849.03;4980014;28;20437;-58
2024/01/06 04:37:39;;;;;;;485.30;256.52;;;;;;;3.76;100.00;96845.75;4980527;28;20023;-55
2024/01/06 04:40:06;;;;;;;513.92;254.55;;;;;;;3.63;100.00;96844.81;4983549;28;20255;-59
2024/01/06 04:42:31;;;;;;;554.03;259.38;;;;;;;3.40;100.00;96848.13;4983867;28;20019;-56
2024/01/06 04:44:56;;;;;;;543.13;261.92;;;;;;;3.37;100.00;96848.09;4983761;28;20052;-57
2024/01/06 04:47:22;;;;;;;527.08;264.63;;;;;;;3.32;100.00;96840.38;4983483;28;20037;-55
2024/01/06 04:49:47;;;;;;;505.33;261.60;;;;;;;3.48;100.00;96851.59;4982394;28;20045;-56
2024/01/06 04:52:12;;;;;;;506.23;258.67;;;;;;;3.67;100.00;96846.56;4985482;28;20038;-57
2024/01/06 04:54:38;;;;;;;571.20;259.52;;;;;;;3.60;100.00;96842.25;4982526;28;20215;-56
2024/01/06 04:57:04;;;;;;;465.98;249.88;;;;;;;3.41;100.00;96852.41;4981822;28;20593;-55
2024/01/06 04:59:30;;;;;;;685.90;262.88;;;;;;;3.45;100.00;96854.13;4980627;28;20034;-57
2024/01/06 05:01:57;;;;;;;490.00;250.48;;;;;;;3.31;100.00;96851.50;4983280;28;20603;-56
2024/01/06 05:04:22;;;;;;;487.63;254.07;;;;;;;3.36;100.00;96847.25;4981351;28;20563;-57
2024/01/06 05:06:49;;;;;;;535.10;248.07;;;;;;;3.23;100.00;96846.28;4980267;28;20137;-58
2024/01/06 05:09:14;;;;;;;476.65;244.55;;;;;;;3.45;100.00;96850.72;4982325;28;20063;-55
2024/01/06 05:11:40;;;;;;;522.90;247.77;;;;;;;3.53;100.00;96851.63;4982287;28;20858;-57
2024/01/06 05:14:05;;;;;;;527.63;251.35;;;;;;;3.43;100.00;96853.28;4982166;28;20018;-57
2024/01/06 05:16:31;;;;;;;597.90;257.80;;;;;;;3.26;100.00;96858.28;4980477;28;20042;-57
2024/01/06 05:18:56;;;;;;;506.80;250.35;;;;;;;3.19;100.00;96859.94;4983752;28;20104;-57
2024/01/06 05:21:21;;;;;;;535.35;251.98;;;;;;;3.23;100.00;96854.00;4984081;28;20104;-56
2024/01/06 05:23:47;;;;;;;503.20;253.27;;;;;;;3.16;100.00;96856.50;4979461;28;20390;-55
2024/01/06 05:26:13;;;;;;;453.90;252.30;;;;;;;2.98;100.00;96858.09;4980610;28;20846;-57
2024/01/06 05:28:39;;;;;;;600.38;252.25;;;;;;;2.93;100.00;96857.19;4984089;28;20030;-55
2024/01/06 05:31:04;;;;;;;510.50;246.63;;;;;;;3.04;100.00;96852.13;4981943;28;20048;-56
2024/01/06 05:33:30;;;;;;;541.97;253.52;;;;;;;2.91;100.00;96853.72;4982061;28;20046;-55
2024/01/06 05:35:55;;;;;;;537.47;250.57;;;;;;;3.06;100.00;96853.88;4980738;28;20667;-55
2024/01/06 05:38:20;;;;;;;497.73;245.65;;;;;;;3.17;100.00;96858.22;4984679;28;20029;-57
2024/01/06 05:40:46;;;;;;;480.60;253.63;;;;;;;3.25;100.00;96869.44;4979483;28;20053;-57
2024/01/06 05:43:11;;;;;;;550.40;257.08;;;;;;;3.10;100.00;96870.16;4982931;28;20048;-56
2024/01/06 05:45:37;;;;;;;491.08;237.27;;;;;;;2.81;100.00;96863.94;4982246;28;20532;-56
2024/01/06 05:48:04;;;;;;;479.92;238.55;;;;;;;3.05;100.00;96875.28;4985841;28;20034;-57
2024/01/06 05:50:29;;;;;;;594.17;246.77;;;;;;;2.92;100.00;96874.28;4983853;28;20504;-56
2024/01/06 05:52:55;;;;;;;489.38;248.57;;;;;;;2.99;100.00;96882.91;4984328;28;20344;-56
2024/01/06 05:55:21;;;;;;;505.65;252.73;;;;;;;2.99;100.00;96886.34;4982385;28;20057;-57
2024/01/06 05:57:46;;;;;;;534.75;249.98;;;;;;;3.04;100.00;96898.38;4981292;28;20382;-58
2024/01/06 06:00:13;;;;;;;489.30;248.48;;;;;;;2.94;100.00;96898.28;4980649;28;20423;-58
2024/01/06 06:02:39;;;;;;;521.90;257.33;;;;;;;2.99;100.00;96901.78;4982644;28;20048;-58
2024/01/06 06:05:05;;;;;;;564.75;264.13;;;;;;;2.93;100.00;96909.41;4983006;28;20318;-58
2024/01/06 06:07:30;;;;;;;527.83;264.40;;;;;;;2.89;100.00;96911.94;4984852;28;20088;-55
2024/01/06 06:09:55;;;;;;;574.58;270.25;;;;;;;2.94;100.00;96915.41;4981454;28;20144;-55
2024/01/06 06:12:20;;;;;;;506.40;246.90;;;;;;;2.76;100.00;96916.94;4983169;28;20502;-56
2024/01/06 06:14:46;;;;;;;467.98;244.98;;;;;;;2.60;100.00;96924.47;4982222;28;20037;-56
2024/01/06 06:17:11;;;;;;;455.75;240.25;;;;;;;2.70;100.00;96914.31;4980623;28;20460;-58
2024/01/06 06:19:37;;;;;;;605.78;244.15;;;;;;;2.71;100.00;96919.47;4981263;28;20045;-59
2024/01/06 06:22:02;;;;;;;525.20;243.82;;;;;;;2.70;100.00;96925.44;4981614;28;20038;-56
2024/01/06 06:24:27;;;;;;;530.08;245.50;;;;;;;2.75;100.00;96927.19;4984568;28;20464;-55
2024/01/06 06:26:52;;;;;;;514.03;244.82;;;;;;;2.92;100.00;96933.38;4985228;28;20038;-58
2024/01/06 06:29:18;;;;;;;489.48;249.93;;;;;;;2.80;100.00;96935.81;4986361;28;20547;-57
2024/01/06 06:31:44;;;;;;;485.92;237.32;;;;;;;2.75;100.00;96942.59;4984676;28;20065;-54
2024/01/06 06:34:10;;;;;;;487.75;242.15;;;;;;;2.88;100.00;96938.44;4988908;28;20018;-57
2024/01/06 06:36:36;;;;;;;516.60;246.70;;;;;;;3.02;100.00;96938.59;4985896;28;20401;-57
2024/01/06 06:39:01;;;;;;;534.53;255.65;;;;;;;2.59;100.00;96955.25;4985807;28;20145;-56
2024/01/06 06:41:27;;;;;;;529.75;236.05;;;;;;;2.45;100.00;96963.66;4984344;28;20052;-57
2024/01/06 06:43:52;;;;;;;514.80;247.05;;;;;;;2.49;100.00;96969.72;4986156;28;20500;-58
2024/01/06 06:46:17;;;;;;;505.65;252.52;;;;;;;2.54;100.00;96969.75;4982098;28;20480;-58
2024/01/06 06:48:43;;;;;;;521.97;255.00;;;;;;;2.53;100.00;96971.44;4986693;28;20505;-57
2024/01/06 06:51:08;;;;;;;472.08;255.73;;;;;;;2.43;100.00;96975.63;4984774;28;20045;-57
2024/01/06 06:53:33;;;;;;;560.42;250.45;;;;;;;2.38;100.00;96968.72;4984341;28;20105;-58
2024/01/06 06:55:59;;;;;;;530.15;255.48;;;;;;;2.29;100.00;96984.84;4983790;28;20049;-56
2024/01/06 06:58:24;;;;;;;500.23;238.98;;;;;;;2.17;100.00;96978.72;4984766;28;20121;-57
2024/01/06 07:00:49;;;;;;;450.02;236.65;;;;;;;2.16;100.00;96986.38;4984155;28;20029;-57
2024/01/06 07:03:15;;;;;;;505.85;250.57;;;;;;;2.22;100.00;96989.03;4984560;28;20401;-56
2024/01/06 07:05:41;;;;;;;533.03;239.45;;;;;;;2.08;100.00;96991.41;4983001;28;20308;-58
2024/01/06 07:08:06;;;;;;;504.45;246.68;;;;;;;2.00;100.00;96990.44;4985317;28;20069;-56
2024/01/06 07:10:31;;;;;;;578.45;258.70;;;;;;;2.11;100.00;96995.72;4981820;28;20038;-55
2024/01/06 07:12:57;;;;;;;517.70;254.75;;;;;;;2.10;100.00;96994.84;4983309;28;20386;-55
2024/01/06 07:15:22;;;;;;;530.20;250.43;;;;;;;2.06;100.00;96990.50;4985383;28;20037;-57
2024/01/06 07:17:47;;;;;;;504.85;246.25;;;;;;;2.18;100.00;96994.94;4983719;28;20454;-58
2024/01/06 07:20:13;;;;;;;516.13;252.30;;;;;;;2.20;100.00;96994.13;4982484;28;20125;-58
2024/01/06 07:22:38;;;;;;;588.38;256.33;;;;;;;2.27;100.00;97004.50;4984415;28;20150;-57
2024/01/06 07:25:05;;;;;;;555.50;251.02;;;;;;;2.32;100.00;97013.97;4983222;28;20790;-56
2024/01/06 07:27:30;;;;;;;555.85;254.82;;;;;;;2.37;100.00;97026.84;4982150;28;20283;-58
2024/01/06 07:29:56;;;;;;;552.58;252.30;;;;;;;2.46;100.00;97016.72;4984326;28;20025;-57
2024/01/06 07:32:25;;;;;;;473.05;248.48;;;;;;;2.50;100.00;97020.19;4982447;28;20038;-58
2024/01/06 07:34:50;;;;;;;487.48;249.35;;;;;;;2.35;100.00;97020.84;4984935;28;20030;-56
2024/01/06 07:37:16;;;;;;;545.42;248.60;;;;;;;2.36;100.00;97024.25;4982640;28;20053;-56
2024/01/06 07:39:41;;;;;;;536.38;253.25;;;;;;;2.50;100.00;97025.34;4982001;28;20429;-56
2024/01/06 07:42:07;;;;;;;471.58;241.55;;;;;;;2.50;100.00;97030.47;4985455;28;20077;-56
2024/01/06 07:44:33;;;;;;;571.65;251.90;;;;;;;2.51;100.00;97027.06;4984421;28;20811;-56
2024/01/06 07:46:58;;;;;;;501.13;243.35;;;;;;;2.41;100.00;97028.63;4985114;28;20030;-56
2024/01/06 07:49:24;;;;;;;517.58;244.30;;;;;;;2.58;100.00;97034.00;4986674;28;20117;-57
2024/01/06 07:51:49;;;;;;;519.28;236.30;;;;;;;2.60;100.00;97040.00;4983611;28;20026;-57
2024/01/06 07:54:14;;;;;;;482.40;237.82;;;;;;;2.69;100.00;97030.69;4985988;28;20033;-56
2024/01/06 07:56:40;;;;;;;504.27;244.50;;;;;;;2.62;100.00;97034.88;4982528;28;20548;-56
2024/01/06 07:59:05;;;;;;;519.15;241.80;;;;;;;2.75;100.00;97027.34;4982199;28;20083;-56
2024/01/06 08:01:31;;;;;;;530.55;243.57;;;;;;;2.56;100.00;97033.09;4981830;28;20045;-57
2024/01/06 08:03:57;;;;;;;456.52;232.68;;;;;;;2.78;100.00;97030.81;4986033;28;20018;-56
2024/01/06 08:06:23;;;;;;;485.38;230.20;;;;;;;2.92;100.00;97037.81;4983736;28;20519;-56
2024/01/06 08:08:48;;;;;;;489.30;244.52;;;;;;;2.80;100.00;97041.09;4984802;28;20421;-57
2024/01/06 08:11:13;;;;;;;504.60;251.38;;;;;;;2.86;100.00;97042.03;4982833;28;20038;-57
2024/01/06 08:13:39;;;;;;;543.60;247.07;;;;;;;2.67;100.00;97047.81;4983595;28;20116;-56
2024/01/06 08:16:05;;;;;;;478.70;245.45;;;;;;;3.23;100.00;97046.72;4982276;28;20117;-60
2024/01/06 08:18:31;;;;;;;503.48;249.15;;;;;;;3.33;100.00;97046.81;4985728;28;20489;-57
2024/01/06 08:20:56;;;;;;;510.40;243.05;;;;;;;3.17;100.00;97049.25;4997059;28;20608;-55
2024/01/06 08:23:21;;;;;;;469.27;242.85;;;;;;;3.18;100.00;97057.78;4986583;28;20489;-57
2024/01/06 08:25:47;;;;;;;536.35;248.57;;;;;;;3.24;100.00;97045.03;4982479;28;20173;-58
2024/01/06 08:28:14;;;;;;;529.03;244.45;;;;;;;3.02;100.00;97057.63;4984737;28;20405;-55
2024/01/06 08:30:40;;;;;;;532.50;247.32;;;;;;;3.21;100.00;97058.72;4983665;28;20296;-55
2024/01/06 08:33:05;;;;;;;495.17;249.98;;;;;;;3.11;100.00;97068.00;4984028;28;20022;-59
2024/01/06 08:35:31;;;;;;;546.38;255.45;;;;;;;3.41;100.00;97070.03;4982720;28;20173;-56
2024/01/06 08:37:56;;;;;;;455.55;198.60;;;;;;;3.36;100.00;97072.56;4983905;28;20026;-61
2024/01/06 08:40:22;;;;;;;450.23;201.85;;;;;;;3.56;100.00;97077.06;4981474;28;20232;-58
2024/01/06 08:42:47;;;;;;;544.67;215.50;;;;;;;3.58;100.00;97071.06;4967269;28;20026;-56
2024/01/06 08:45:13;;;;;;;490.67;205.85;;;;;;;3.80;100.00;97068.69;4981962;28;20048;-59
2024/01/06 08:47:38;;;;;;;531.83;222.30;;;;;;;3.56;100.00;97074.47;4983101;28;20132;-57
2024/01/06 08:50:04;;;;;;;453.45;235.02;;;;;;;3.55;100.00;97081.31;4984143;28;20401;-57
2024/01/06 08:52:29;;;;;;;500.17;226.90;;;;;;;3.77;100.00;97086.66;4982680;28;20136;-58
2024/01/06 08:54:54;;;;;;;549.38;222.75;;;;;;;3.94;100.00;97080.81;4982466;28;20030;-57
2024/01/06 08:57:20;;;;;;;463.40;219.18;;;;;;;3.58;100.00;97081.34;4981717;28;20069;-56
2024/01/06 08:59:45;;;;;;;482.55;219.90;;;;;;;3.86;100.00;97078.19;4983847;28;20080;-56
2024/01/06 09:02:11;;;;;;;491.13;225.27;;;;;;;3.88;100.00;97082.50;4979465;28;20485;-59
2024/01/06 09:04:36;;;;;;;463.63;218.05;;;;;;;3.84;100.00;97083.31;4986048;28;20385;-58
2024/01/06 09:07:02;;;;;;;460.65;221.30;;;;;;;4.05;100.00;97089.50;4988646;28;20141;-57
2024/01/06 09:09:28;;;;;;;580.33;234.80;;;;;;;4.08;100.00;97083.50;4986758;28;20129;-58
2024/01/06 09:11:53;;;;;;;436.88;220.13;;;;;;;3.85;100.00;97086.72;4988434;28;20148;-56
2024/01/06 09:14:19;;;;;;;402.50;210.38;;;;;;;3.72;100.00;97091.78;4989518;28;20089;-58
2024/01/06 09:16:44;;;;;;;448.33;205.68;;;;;;;3.94;100.00;97083.38;4986976;28;20141;-59
2024/01/06 09:19:10;;;;;;;408.80;217.60;;;;;;;4.23;100.00;97087.91;4987573;28;20041;-58
2024/01/06 09:21:35;;;;;;;504.77;220.35;;;;;;;4.31;100.00;97091.41;4988141;28;20053;-58
2024/01/06 09:24:05;;;;;;;496.00;230.98;;;;;;;4.26;100.00;97098.22;4985540;28;20021;-55
2024/01/06 09:26:31;;;;;;;455.77;217.02;;;;;;;4.74;100.00;97103.69;4985889;28;20041;-56
2024/01/06 09:28:57;;;;;;;460.83;222.75;;;;;;;4.82;100.00;97096.84;4985532;28;20042;-57
2024/01/06 09:31:23;;;;;;;465.48;211.95;;;;;;;4.73;100.00;97098.50;4986969;28;20046;-57
2024/01/06 09:33:49;;;;;;;519.63;228.82;;;;;;;5.16;100.00;97101.28;4984958;28;20034;-59
2024/01/06 09:36:15;;;;;;;405.05;210.02;;;;;;;4.64;100.00;97104.50;4986674;28;20915;-57
2024/01/06 09:38:40;;;;;;;534.70;225.60;;;;;;;5.14;100.00;97107.31;4987564;28;20045;-56
2024/01/06 09:41:06;;;;;;;422.40;220.10;;;;;;;5.40;100.00;97101.38;4986829;28;20057;-57
2024/01/06 09:43:32;;;;;;;462.42;231.25;;;;;;;5.23;100.00;97103.91;4986993;28;20453;-58
2024/01/06 09:46:29;;;;;;;480.60;235.45;;;;;;;5.28;100.00;97103.06;4986197;28;20045;-58
2024/01/06 09:48:56;;;;;;;486.60;236.77;;;;;;;5.33;100.00;97108.22;4987093;28;20487;-59
2024/01/06 09:51:22;;;;;;;467.98;243.30;;;;;;;5.26;100.00;97116.78;4985974;28;20049;-56
2024/01/06 09:53:59;;;;;;;533.92;259.25;;;;;;;5.35;100.00;97109.13;4987419;28;20031;-58
2024/01/06 09:56:26;;;;;;;490.10;245.73;;;;;;;5.00;100.00;97113.25;4988065;28;20525;-57
2024/01/06 09:58:51;;;;;;;523.33;250.27;;;;;;;5.31;100.00;97121.13;4987659;28;20061;-58
2024/01/06 10:01:21;;;;;;;477.67;243.90;;;;;;;5.45;100.00;97116.00;4986116;28;20252;-57
2024/01/06 10:03:47;;;;;;;467.35;243.88;;;;;;;5.74;100.00;97122.09;4986163;28;20712;-57
2024/01/06 10:06:16;;;;;;;397.45;221.80;;;;;;;5.72;100.00;97116.09;4986948;28;20046;-58
2024/01/06 10:08:48;;;;;;;543.63;234.82;;;;;;;5.29;100.00;97124.53;4987681;28;20267;-59
2024/01/06 10:11:13;;;;;;;420.77;241.13;;;;;;;5.49;100.00;97134.09;4987220;28;20040;-57
2024/01/06 10:13:39;;;;;;;551.45;247.80;;;;;;;5.43;100.00;97127.19;4985625;28;20054;-56
2024/01/06 10:16:05;;;;;;;494.17;248.23;;;;;;;5.47;100.00;97129.75;4986930;28;20473;-58
2024/01/06 10:18:31;;;;;;;500.67;246.93;;;;;;;5.90;100.00;97127.28;4988500;28;20424;-57
2024/01/06 10:20:57;;;;;;;521.03;250.73;;;;;;;5.64;100.00;97128.09;4983857;28;20494;-58
2024/01/06 10:23:23;;;;;;;479.00;250.80;;;;;;;5.66;100.00;97123.78;4987254;28;20038;-58
2024/01/06 10:25:52;;;;;;;464.75;251.48;;;;;;;5.79;100.00;97130.69;4986967;28;20052;-58
2024/01/06 10:28:17;;;;;;;526.42;255.60;;;;;;;5.98;100.00;97128.16;4986619;28;20117;-56
2024/01/06 10:30:43;;;;;;;543.15;259.73;;;;;;;6.06;100.00;97131.66;4983930;28;20734;-58
2024/01/06 10:33:13;;;;;;;429.73;225.63;;;;;;;5.99;100.00;97133.31;4987826;28;20675;-57
2024/01/06 10:35:39;;;;;;;576.45;238.43;;;;;;;5.99;100.00;97132.47;4986697;28;20053;-56
2024/01/06 10:38:04;;;;;;;482.70;242.70;;;;;;;5.92;100.00;97133.31;4986167;28;20030;-58
2024/01/06 10:40:30;;;;;;;486.40;243.68;;;;;;;5.64;100.00;97135.84;4988225;28;20047;-59
2024/01/06 10:42:57;;;;;;;498.75;240.63;;;;;;;6.03;100.00;97130.72;4985655;28;20144;-58
2024/01/06 10:45:23;;;;;;;459.00;234.48;;;;;;;6.05;100.00;97132.50;4986832;28;20061;-60
2024/01/06 10:47:49;;;;;;;488.52;240.48;;;;;;;5.99;100.00;97129.88;4987469;28;20459;-61
2024/01/06 10:50:17;;;;;;;468.85;242.18;;;;;;;5.64;100.00;97133.25;4986386;28;20489;-57
2024/01/06 10:52:43;;;;;;;521.10;244.18;;;;;;;5.87;100.00;97128.16;4988615;28;20022;-60
2024/01/06 10:55:09;;;;;;;522.22;227.15;;;;;;;6.11;100.00;97134.22;4986160;28;20468;-60